메인 페이지
METAR-TAF:

METAR-TAF

공항 :

벨렝, 파라, 브라질

위도: 01-23S, 경도: 048-29W, 고도: 16m

현재 날씨관측

예보는 24분 전, 19:00시(UTC)에 발표되었습니다.
북북동6kt
온도 25°C
습도 94%
기압 1008 hPa
시정 10km 이상
고도 2000ft 상공 구름 보통
고도 10000ft 상공 구름 많음

METAR: SBBE 041900Z 03006KT 9999 SCT020 BKN100 25/24 Q1008RETS

시각: 16:24 (19:24 UTC)

예보

예보는 3 시간 24분 전, 16:00시(UTC)에 발표되었습니다.
예보 대상 시간: 04일 18시부터 05일 18시까지 (UTC)
북북동10kt
시정: 8000m
고도 2500ft 상공 구름 보통
고도 3000ft 상공 구름 조금, 타워링 적운.
전환 중
04일 18시부터 04일 20시까지 (UTC)
10kt
시정: 7000m
고도 2500ft 상공 구름 많음
고도 3000ft 상공 구름 조금, 적란운.
뇌우
전환 중
04일 21시부터 04일 24시까지 (UTC)
동북동5kt
시정: 8000m
고도 1700ft 상공 구름 보통
전환 중
05일 03시부터 05일 06시까지 (UTC)
동남동5kt
시정: 8000m
고도 1200ft 상공 구름 보통
전환 중
05일 11시부터 05일 14시까지 (UTC)
동북동8kt
고도 2000ft 상공 구름 많음
전환 중
05일 15시부터 05일 17시까지 (UTC)
고도 2300ft 상공 구름 보통
고도 3000ft 상공 구름 조금, 타워링 적운.

TAF: SBBE 041600Z 0418/0518 03010KT 8000 SCT025 FEW030TCU TN24/0509Z TX31/0517Z BECMG 0418/0420 36010KT 7000 TS BKN025 FEW030CB BECMG 0421/0424 07005KT 8000 NSW SCT017 BECMG 0503/0506 11005KT 8000 SCT012 BECMG 0511/0514 06008KT BKN020 BECMG 0515/0517 SCT023 FEW030TCU RMK PHC

4,000개 이상의 공항 관측 자료 및 예보 (METAR 및 TAF 보고).

지도상에서 검색 가능한 기상관측소가 노란 점과 빨간 점으로 표시되어 있습니다.

기상관측소 명을 보려면 표시 위로 마우스를 이동하세요.

날씨 관측과 예보를 보려면 클릭하세요.

지도 변경 : 확대하려면 엑스 표시가 있는 녹색 버튼, 축소하려면 빼기 표시가 있는 녹색 버튼, 다음 페이지의 지도를 보려면 녹색 화살표를 클릭하세요.


METAR-TAF: